sensor_id;sensor_type;location;lat;lon;timestamp;pressure;altitude;pressure_sealevel;temperature;humidity
56241;BME280;42155;53.096;23.226;2023-02-21T00:01:59;97975.69;;;4.84;80.23
56241;BME280;42155;53.096;23.226;2023-02-21T00:03:59;97975.69;;;4.84;80.02
56241;BME280;42155;53.096;23.226;2023-02-21T00:06:00;97981.91;;;4.83;80.17
56241;BME280;42155;53.096;23.226;2023-02-21T00:08:00;97945.22;;;4.62;80.04
56241;BME280;42155;53.096;23.226;2023-02-21T00:10:01;97975.13;;;4.80;80.10
56241;BME280;42155;53.096;23.226;2023-02-21T00:12:01;97985.78;;;4.79;80.04
56241;BME280;42155;53.096;23.226;2023-02-21T00:14:02;97983.16;;;4.79;80.63
56241;BME280;42155;53.096;23.226;2023-02-21T00:16:02;97979.69;;;4.78;80.62
56241;BME280;42155;53.096;23.226;2023-02-21T00:18:02;97990.19;;;4.78;80.57
56241;BME280;42155;53.096;23.226;2023-02-21T00:20:03;97972.63;;;4.79;80.39
56241;BME280;42155;53.096;23.226;2023-02-21T00:22:03;97971.94;;;4.77;80.48
56241;BME280;42155;53.096;23.226;2023-02-21T00:24:04;97965.16;;;4.74;80.26
56241;BME280;42155;53.096;23.226;2023-02-21T00:26:04;97982.59;;;4.85;80.33
56241;BME280;42155;53.096;23.226;2023-02-21T00:28:05;97971.66;;;4.80;80.45
56241;BME280;42155;53.096;23.226;2023-02-21T00:30:05;97977.63;;;4.82;80.41
56241;BME280;42155;53.096;23.226;2023-02-21T00:32:06;97945.34;;;4.60;79.83
56241;BME280;42155;53.096;23.226;2023-02-21T00:34:06;97973.34;;;4.81;79.86
56241;BME280;42155;53.096;23.226;2023-02-21T00:36:07;97988.81;;;4.84;80.05
56241;BME280;42155;53.096;23.226;2023-02-21T00:38:07;97985.09;;;4.87;79.69
56241;BME280;42155;53.096;23.226;2023-02-21T00:40:11;97981.34;;;4.89;79.94
56241;BME280;42155;53.096;23.226;2023-02-21T00:42:11;97992.44;;;4.93;79.67
56241;BME280;42155;53.096;23.226;2023-02-21T00:44:11;97999.09;;;4.97;79.89
56241;BME280;42155;53.096;23.226;2023-02-21T00:46:12;97980.84;;;4.95;79.07
56241;BME280;42155;53.096;23.226;2023-02-21T00:48:12;97991.34;;;5.05;79.52
56241;BME280;42155;53.096;23.226;2023-02-21T00:50:13;98010.72;;;5.04;79.30
56241;BME280;42155;53.096;23.226;2023-02-21T00:52:13;97981.94;;;5.02;79.41
56241;BME280;42155;53.096;23.226;2023-02-21T00:54:14;98000.63;;;4.99;79.09
56241;BME280;42155;53.096;23.226;2023-02-21T00:56:14;97999.22;;;4.95;79.86
56241;BME280;42155;53.096;23.226;2023-02-21T00:58:14;97988.31;;;4.90;79.80
56241;BME280;42155;53.096;23.226;2023-02-21T01:00:18;98014.69;;;4.89;80.06
56241;BME280;42155;53.096;23.226;2023-02-21T01:02:18;97994.50;;;4.89;80.07
56241;BME280;42155;53.096;23.226;2023-02-21T01:04:19;98002.28;;;4.91;79.63
56241;BME280;42155;53.096;23.226;2023-02-21T01:06:19;98006.97;;;4.87;79.57
56241;BME280;42155;53.096;23.226;2023-02-21T01:08:19;97986.91;;;4.86;80.22
56241;BME280;42155;53.096;23.226;2023-02-21T01:10:20;97991.59;;;4.82;79.98
56241;BME280;42155;53.096;23.226;2023-02-21T01:12:21;97993.09;;;4.85;80.02
56241;BME280;42155;53.096;23.226;2023-02-21T01:14:21;97990.47;;;4.85;80.81
56241;BME280;42155;53.096;23.226;2023-02-21T01:16:21;97997.41;;;4.86;80.31
56241;BME280;42155;53.096;23.226;2023-02-21T01:18:22;97993.97;;;4.85;80.80
56241;BME280;42155;53.096;23.226;2023-02-21T01:20:22;97992.28;;;4.84;80.37
56241;BME280;42155;53.096;23.226;2023-02-21T01:22:22;97988.56;;;4.87;80.92
56241;BME280;42155;53.096;23.226;2023-02-21T01:24:23;97970.44;;;4.84;80.36
56241;BME280;42155;53.096;23.226;2023-02-21T01:26:23;97956.88;;;4.79;80.28
56241;BME280;42155;53.096;23.226;2023-02-21T01:28:23;97972.78;;;4.87;80.53
56241;BME280;42155;53.096;23.226;2023-02-21T01:30:24;97973.88;;;4.94;80.96
56241;BME280;42155;53.096;23.226;2023-02-21T01:32:24;97958.94;;;4.85;80.76
56241;BME280;42155;53.096;23.226;2023-02-21T01:34:24;97968.94;;;5.01;80.38
56241;BME280;42155;53.096;23.226;2023-02-21T01:36:25;97988.00;;;5.03;80.10
56241;BME280;42155;53.096;23.226;2023-02-21T01:38:25;98002.69;;;5.05;80.60
56241;BME280;42155;53.096;23.226;2023-02-21T01:40:26;97957.84;;;4.88;80.22
56241;BME280;42155;53.096;23.226;2023-02-21T01:42:26;97958.22;;;4.64;80.39
56241;BME280;42155;53.096;23.226;2023-02-21T01:46:33;97984.72;;;4.41;80.74
56241;BME280;42155;53.096;23.226;2023-02-21T01:48:34;97989.34;;;4.28;80.67
56241;BME280;42155;53.096;23.226;2023-02-21T01:50:34;97975.38;;;4.18;80.82
56241;BME280;42155;53.096;23.226;2023-02-21T01:52:35;97975.91;;;4.12;81.08
56241;BME280;42155;53.096;23.226;2023-02-21T01:54:40;97981.97;;;4.12;80.70
56241;BME280;42155;53.096;23.226;2023-02-21T01:56:41;97990.75;;;4.01;81.13
56241;BME280;42155;53.096;23.226;2023-02-21T01:58:43;97999.59;;;4.00;80.94
56241;BME280;42155;53.096;23.226;2023-02-21T02:00:45;97976.94;;;3.99;80.87
56241;BME280;42155;53.096;23.226;2023-02-21T02:04:46;97988.84;;;4.03;81.07
56241;BME280;42155;53.096;23.226;2023-02-21T02:06:47;97979.59;;;4.09;81.10
56241;BME280;42155;53.096;23.226;2023-02-21T02:08:48;97973.72;;;4.17;81.65
56241;BME280;42155;53.096;23.226;2023-02-21T02:10:59;97973.75;;;4.26;81.64
56241;BME280;42155;53.096;23.226;2023-02-21T02:15:32;97934.75;;;4.22;80.62
56241;BME280;42155;53.096;23.226;2023-02-21T02:26:42;97958.50;;;4.60;80.77
56241;BME280;42155;53.096;23.226;2023-02-21T02:31:25;97957.53;;;4.71;80.74
56241;BME280;42155;53.096;23.226;2023-02-21T02:33:56;97967.53;;;4.77;80.92
56241;BME280;42155;53.096;23.226;2023-02-21T02:36:14;97963.91;;;4.78;81.05
56241;BME280;42155;53.096;23.226;2023-02-21T02:43:05;97975.69;;;4.84;80.57
56241;BME280;42155;53.096;23.226;2023-02-21T02:45:36;97975.41;;;4.87;81.04
56241;BME280;42155;53.096;23.226;2023-02-21T02:47:41;97972.06;;;4.85;80.97
56241;BME280;42155;53.096;23.226;2023-02-21T02:49:44;97960.63;;;4.86;80.58
56241;BME280;42155;53.096;23.226;2023-02-21T02:51:45;97944.13;;;4.65;80.71
56241;BME280;42155;53.096;23.226;2023-02-21T02:53:45;97959.50;;;4.79;81.15
56241;BME280;42155;53.096;23.226;2023-02-21T02:56:06;97965.56;;;4.79;80.81
56241;BME280;42155;53.096;23.226;2023-02-21T02:58:10;97967.22;;;4.80;80.80
56241;BME280;42155;53.096;23.226;2023-02-21T03:00:11;97965.56;;;4.79;81.10
56241;BME280;42155;53.096;23.226;2023-02-21T03:02:23;97964.19;;;4.85;81.25
56241;BME280;42155;53.096;23.226;2023-02-21T03:07:24;97965.47;;;4.91;81.14
56241;BME280;42155;53.096;23.226;2023-02-21T03:11:19;97971.41;;;4.93;81.21
56241;BME280;42155;53.096;23.226;2023-02-21T03:13:28;97974.44;;;4.88;81.04
56241;BME280;42155;53.096;23.226;2023-02-21T03:15:53;97985.09;;;4.87;80.99
56241;BME280;42155;53.096;23.226;2023-02-21T03:20:33;97978.03;;;4.77;80.86
56241;BME280;42155;53.096;23.226;2023-02-21T03:22:34;97958.09;;;4.75;80.99
56241;BME280;42155;53.096;23.226;2023-02-21T03:24:35;97974.56;;;4.77;81.48
56241;BME280;42155;53.096;23.226;2023-02-21T03:26:40;97970.97;;;4.78;81.44
56241;BME280;42155;53.096;23.226;2023-02-21T03:28:41;97968.34;;;4.78;80.76
56241;BME280;42155;53.096;23.226;2023-02-21T03:30:43;97970.00;;;4.79;81.30
56241;BME280;42155;53.096;23.226;2023-02-21T03:32:48;97954.63;;;4.65;81.10
56241;BME280;42155;53.096;23.226;2023-02-21T03:34:49;97943.13;;;4.56;80.87
56241;BME280;42155;53.096;23.226;2023-02-21T03:36:50;97961.56;;;4.75;80.95
56241;BME280;42155;53.096;23.226;2023-02-21T03:38:51;97975.28;;;4.89;81.25
56241;BME280;42155;53.096;23.226;2023-02-21T03:40:51;97967.13;;;4.82;81.19
56241;BME280;42155;53.096;23.226;2023-02-21T03:42:52;97955.63;;;4.83;80.87
56241;BME280;42155;53.096;23.226;2023-02-21T03:44:53;97961.72;;;4.83;81.03
56241;BME280;42155;53.096;23.226;2023-02-21T03:46:53;97974.44;;;4.88;81.11
56241;BME280;42155;53.096;23.226;2023-02-21T03:48:53;97976.09;;;4.89;81.48
56241;BME280;42155;53.096;23.226;2023-02-21T03:50:54;97969.44;;;4.85;81.04
56241;BME280;42155;53.096;23.226;2023-02-21T03:52:54;97974.72;;;4.85;80.90
56241;BME280;42155;53.096;23.226;2023-02-21T03:54:55;97987.84;;;4.85;80.67
56241;BME280;42155;53.096;23.226;2023-02-21T03:56:55;97988.81;;;4.84;81.38
56241;BME280;42155;53.096;23.226;2023-02-21T03:58:55;97919.34;;;4.48;80.82
56241;BME280;42155;53.096;23.226;2023-02-21T04:00:56;97974.44;;;4.88;80.88
56241;BME280;42155;53.096;23.226;2023-02-21T04:02:56;97973.06;;;4.84;81.02
56241;BME280;42155;53.096;23.226;2023-02-21T04:04:56;97965.56;;;4.79;81.02
56241;BME280;42155;53.096;23.226;2023-02-21T04:06:57;97982.06;;;4.81;80.98
56241;BME280;42155;53.096;23.226;2023-02-21T04:08:57;97980.53;;;4.79;80.82
56241;BME280;42155;53.096;23.226;2023-02-21T04:10:57;97965.41;;;4.71;80.84
56241;BME280;42155;53.096;23.226;2023-02-21T04:12:58;97981.91;;;4.73;80.88
56241;BME280;42155;53.096;23.226;2023-02-21T04:14:58;97992.97;;;4.67;81.30
56241;BME280;42155;53.096;23.226;2023-02-21T04:16:58;97977.63;;;4.72;81.01
56241;BME280;42155;53.096;23.226;2023-02-21T04:18:59;97967.50;;;4.68;80.77
56241;BME280;42155;53.096;23.226;2023-02-21T04:20:59;97970.25;;;4.76;80.44
56241;BME280;42155;53.096;23.226;2023-02-21T04:22:59;97974.44;;;4.78;80.40
56241;BME280;42155;53.096;23.226;2023-02-21T04:25:00;97970.00;;;4.79;80.24
56241;BME280;42155;53.096;23.226;2023-02-21T04:27:00;97961.03;;;4.72;80.45
56241;BME280;42155;53.096;23.226;2023-02-21T04:29:01;97957.41;;;4.73;80.63
56241;BME280;42155;53.096;23.226;2023-02-21T04:31:01;97957.25;;;4.65;80.00
56241;BME280;42155;53.096;23.226;2023-02-21T04:33:02;97985.19;;;4.66;80.02
56241;BME280;42155;53.096;23.226;2023-02-21T04:35:03;97901.31;;;4.24;80.65
56241;BME280;42155;53.096;23.226;2023-02-21T04:37:03;97969.72;;;4.63;79.95
56241;BME280;42155;53.096;23.226;2023-02-21T04:39:04;97934.81;;;4.41;80.36
56241;BME280;42155;53.096;23.226;2023-02-21T04:41:05;97974.50;;;4.57;80.39
56241;BME280;42155;53.096;23.226;2023-02-21T04:43:06;97967.19;;;4.51;80.32
56241;BME280;42155;53.096;23.226;2023-02-21T04:45:07;97971.34;;;4.54;80.20
56241;BME280;42155;53.096;23.226;2023-02-21T04:47:07;97962.75;;;4.52;80.38
56241;BME280;42155;53.096;23.226;2023-02-21T04:49:09;97964.97;;;4.47;80.65
56241;BME280;42155;53.096;23.226;2023-02-21T04:51:11;97969.25;;;4.57;80.86
56241;BME280;42155;53.096;23.226;2023-02-21T04:53:12;97963.88;;;4.59;80.62
56241;BME280;42155;53.096;23.226;2023-02-21T04:55:14;97963.88;;;4.59;80.36
56241;BME280;42155;53.096;23.226;2023-02-21T04:57:15;97962.34;;;4.56;79.98
56241;BME280;42155;53.096;23.226;2023-02-21T04:59:15;97969.72;;;4.63;80.10
56241;BME280;42155;53.096;23.226;2023-02-21T05:01:17;97967.59;;;4.56;80.24
56241;BME280;42155;53.096;23.226;2023-02-21T05:03:17;97961.38;;;4.57;80.03
56241;BME280;42155;53.096;23.226;2023-02-21T05:05:18;97976.63;;;4.64;80.23
56241;BME280;42155;53.096;23.226;2023-02-21T05:07:18;97973.28;;;4.62;80.33
56241;BME280;42155;53.096;23.226;2023-02-21T05:09:19;97956.41;;;4.54;80.80
56241;BME280;42155;53.096;23.226;2023-02-21T05:11:20;97975.78;;;4.63;80.44
56241;BME280;42155;53.096;23.226;2023-02-21T05:13:20;97958.91;;;4.66;80.89
56241;BME280;42155;53.096;23.226;2023-02-21T05:15:21;97956.28;;;4.66;80.54
56241;BME280;42155;53.096;23.226;2023-02-21T05:17:21;97957.53;;;4.62;80.17
56241;BME280;42155;53.096;23.226;2023-02-21T05:19:22;97973.03;;;4.65;80.39
56241;BME280;42155;53.096;23.226;2023-02-21T05:21:22;97952.56;;;4.58;80.46
56241;BME280;42155;53.096;23.226;2023-02-21T05:23:22;97955.88;;;4.60;80.89
56241;BME280;42155;53.096;23.226;2023-02-21T05:25:23;97962.78;;;4.62;80.20
56241;BME280;42155;53.096;23.226;2023-02-21T05:27:23;97945.34;;;4.60;80.36
56241;BME280;42155;53.096;23.226;2023-02-21T05:29:24;97941.50;;;4.65;80.87
56241;BME280;42155;53.096;23.226;2023-02-21T05:31:24;97948.41;;;4.66;80.43
56241;BME280;42155;53.096;23.226;2023-02-21T05:33:25;97925.69;;;4.45;80.38
56241;BME280;42155;53.096;23.226;2023-02-21T05:35:25;97954.63;;;4.65;80.28
56241;BME280;42155;53.096;23.226;2023-02-21T05:37:26;97958.91;;;4.66;80.64
56241;BME280;42155;53.096;23.226;2023-02-21T05:39:26;97963.34;;;4.65;80.04
56241;BME280;42155;53.096;23.226;2023-02-21T05:41:26;97957.25;;;4.65;80.42
56241;BME280;42155;53.096;23.226;2023-02-21T05:43:27;97961.53;;;4.66;79.72
56241;BME280;42155;53.096;23.226;2023-02-21T05:45:27;97970.13;;;4.68;80.12
56241;BME280;42155;53.096;23.226;2023-02-21T05:47:27;97929.97;;;4.46;79.86
56241;BME280;42155;53.096;23.226;2023-02-21T05:49:28;97978.84;;;4.68;79.65
56241;BME280;42155;53.096;23.226;2023-02-21T05:51:35;97980.66;;;4.68;79.67
56241;BME280;42155;53.096;23.226;2023-02-21T05:53:36;97986.72;;;4.68;80.04
56241;BME280;42155;53.096;23.226;2023-02-21T05:55:36;97971.38;;;4.64;80.05
56241;BME280;42155;53.096;23.226;2023-02-21T05:57:38;97965.56;;;4.70;79.73
56241;BME280;42155;53.096;23.226;2023-02-21T05:59:38;97967.50;;;4.68;79.98
56241;BME280;42155;53.096;23.226;2023-02-21T06:01:38;97966.38;;;4.70;80.10
56241;BME280;42155;53.096;23.226;2023-02-21T06:03:39;97993.22;;;4.74;79.80
56241;BME280;42155;53.096;23.226;2023-02-21T06:05:39;97975.53;;;4.76;80.20
56241;BME280;42155;53.096;23.226;2023-02-21T06:07:39;97968.75;;;4.73;79.75
56241;BME280;42155;53.096;23.226;2023-02-21T06:09:40;97973.59;;;4.78;79.54
56241;BME280;42155;53.096;23.226;2023-02-21T06:11:40;97973.19;;;4.82;79.73
56241;BME280;42155;53.096;23.226;2023-02-21T06:13:40;97971.41;;;4.83;79.50
56241;BME280;42155;53.096;23.226;2023-02-21T06:15:41;97958.66;;;4.78;79.51
56241;BME280;42155;53.096;23.226;2023-02-21T06:17:41;97985.22;;;4.85;78.82
56241;BME280;42155;53.096;23.226;2023-02-21T06:19:41;97966.28;;;4.81;79.43
56241;BME280;42155;53.096;23.226;2023-02-21T06:21:42;97862.34;;;4.19;79.11
56241;BME280;42155;53.096;23.226;2023-02-21T06:23:43;97978.03;;;4.87;79.43
56241;BME280;42155;53.096;23.226;2023-02-21T06:25:43;97976.41;;;4.86;78.85
56241;BME280;42155;53.096;23.226;2023-02-21T06:27:43;97996.03;;;4.92;78.91
56241;BME280;42155;53.096;23.226;2023-02-21T06:29:44;97999.50;;;4.92;79.13
56241;BME280;42155;53.096;23.226;2023-02-21T06:31:44;97993.25;;;4.93;78.57
56241;BME280;42155;53.096;23.226;2023-02-21T06:33:45;97964.47;;;4.72;78.72
56241;BME280;42155;53.096;23.226;2023-02-21T06:35:46;97998.25;;;4.96;78.29
56241;BME280;42155;53.096;23.226;2023-02-21T06:37:46;98007.81;;;4.97;78.20
56241;BME280;42155;53.096;23.226;2023-02-21T06:39:46;98015.69;;;4.97;78.30
56241;BME280;42155;53.096;23.226;2023-02-21T06:41:49;98024.97;;;5.01;78.64
56241;BME280;42155;53.096;23.226;2023-02-21T06:43:50;98017.91;;;5.02;77.96
56241;BME280;42155;53.096;23.226;2023-02-21T06:45:51;98013.47;;;5.02;78.16
56241;BME280;42155;53.096;23.226;2023-02-21T06:47:51;98027.34;;;5.04;77.79
56241;BME280;42155;53.096;23.226;2023-02-21T06:49:52;98034.94;;;5.07;78.02
56241;BME280;42155;53.096;23.226;2023-02-21T06:51:52;98031.75;;;5.04;78.42
56241;BME280;42155;53.096;23.226;2023-02-21T06:53:52;98039.09;;;5.10;78.48
56241;BME280;42155;53.096;23.226;2023-02-21T06:55:52;98045.44;;;5.07;77.83
56241;BME280;42155;53.096;23.226;2023-02-21T06:57:53;98045.84;;;5.03;78.25
56241;BME280;42155;53.096;23.226;2023-02-21T06:59:53;98054.31;;;5.06;77.87
56241;BME280;42155;53.096;23.226;2023-02-21T07:01:54;98032.00;;;4.91;78.47
56241;BME280;42155;53.096;23.226;2023-02-21T07:03:56;98063.84;;;5.07;78.43
56241;BME280;42155;53.096;23.226;2023-02-21T07:05:57;98065.53;;;5.08;78.56
56241;BME280;42155;53.096;23.226;2023-02-21T07:07:57;98059.00;;;5.13;79.22
56241;BME280;42155;53.096;23.226;2023-02-21T07:09:58;98041.41;;;5.03;79.06
56241;BME280;42155;53.096;23.226;2023-02-21T07:11:58;98064.44;;;5.21;79.18
56241;BME280;42155;53.096;23.226;2023-02-21T07:13:58;98061.13;;;5.19;78.52
56241;BME280;42155;53.096;23.226;2023-02-21T07:16:00;98071.91;;;5.16;79.04
56241;BME280;42155;53.096;23.226;2023-02-21T07:18:00;98060.53;;;5.05;78.76
56241;BME280;42155;53.096;23.226;2023-02-21T07:20:01;98077.31;;;5.14;79.34
56241;BME280;42155;53.096;23.226;2023-02-21T07:22:02;98076.91;;;5.19;79.26
56241;BME280;42155;53.096;23.226;2023-02-21T07:24:02;98038.91;;;4.92;79.14
56241;BME280;42155;53.096;23.226;2023-02-21T07:26:03;98070.66;;;5.20;78.76
56241;BME280;42155;53.096;23.226;2023-02-21T07:28:03;98082.84;;;5.21;78.77
56241;BME280;42155;53.096;23.226;2023-02-21T07:30:04;98011.06;;;4.70;78.81
56241;BME280;42155;53.096;23.226;2023-02-21T07:32:04;98085.19;;;5.24;79.25
56241;BME280;42155;53.096;23.226;2023-02-21T07:34:05;98095.72;;;5.24;78.99
56241;BME280;42155;53.096;23.226;2023-02-21T07:36:05;98087.97;;;5.22;78.78
56241;BME280;42155;53.096;23.226;2023-02-21T07:38:06;98092.94;;;5.25;78.90
56241;BME280;42155;53.096;23.226;2023-02-21T07:40:06;98092.38;;;5.22;78.35
56241;BME280;42155;53.096;23.226;2023-02-21T07:42:07;98087.13;;;5.22;78.50
56241;BME280;42155;53.096;23.226;2023-02-21T07:44:07;98097.13;;;5.28;78.18
56241;BME280;42155;53.096;23.226;2023-02-21T07:46:12;98095.16;;;5.30;78.38
56241;BME280;42155;53.096;23.226;2023-02-21T07:48:14;98102.91;;;5.31;78.20
56241;BME280;42155;53.096;23.226;2023-02-21T07:50:14;98115.66;;;5.36;77.98
56241;BME280;42155;53.096;23.226;2023-02-21T07:52:15;98117.34;;;5.37;78.01
56241;BME280;42155;53.096;23.226;2023-02-21T07:54:15;98110.13;;;5.39;77.87
56241;BME280;42155;53.096;23.226;2023-02-21T07:56:16;98112.63;;;5.41;78.45
56241;BME280;42155;53.096;23.226;2023-02-21T07:58:16;98119.41;;;5.43;77.89
56241;BME280;42155;53.096;23.226;2023-02-21T08:00:17;98118.03;;;5.49;77.78
56241;BME280;42155;53.096;23.226;2023-02-21T08:02:17;98122.88;;;5.53;77.68
56241;BME280;42155;53.096;23.226;2023-02-21T08:04:18;98123.03;;;5.61;77.11
56241;BME280;42155;53.096;23.226;2023-02-21T08:06:18;98130.94;;;5.71;77.25
56241;BME280;42155;53.096;23.226;2023-02-21T08:08:18;98140.50;;;5.82;76.94
56241;BME280;42155;53.096;23.226;2023-02-21T08:10:22;98119.88;;;5.87;76.59
56241;BME280;42155;53.096;23.226;2023-02-21T08:12:23;98137.34;;;5.88;76.26
56241;BME280;42155;53.096;23.226;2023-02-21T08:14:23;98115.88;;;5.73;75.99
56241;BME280;42155;53.096;23.226;2023-02-21T08:16:24;98136.81;;;5.94;76.16
56241;BME280;42155;53.096;23.226;2023-02-21T08:18:24;98143.72;;;5.95;76.39
56241;BME280;42155;53.096;23.226;2023-02-21T08:20:24;98133.50;;;5.92;75.86
56241;BME280;42155;53.096;23.226;2023-02-21T08:22:25;98150.63;;;5.86;76.59
56241;BME280;42155;53.096;23.226;2023-02-21T08:24:25;98154.78;;;5.89;76.69
56241;BME280;42155;53.096;23.226;2023-02-21T08:26:25;98155.63;;;5.90;76.62
56241;BME280;42155;53.096;23.226;2023-02-21T08:28:26;98150.19;;;5.81;76.36
56241;BME280;42155;53.096;23.226;2023-02-21T08:30:26;98150.34;;;5.70;76.40
56241;BME280;42155;53.096;23.226;2023-02-21T08:32:26;98164.19;;;5.82;76.41
56241;BME280;42155;53.096;23.226;2023-02-21T08:34:27;98181.66;;;5.83;76.46
56241;BME280;42155;53.096;23.226;2023-02-21T08:36:31;98177.78;;;5.87;76.39
56241;BME280;42155;53.096;23.226;2023-02-21T08:38:32;98131.34;;;5.67;76.30
56241;BME280;42155;53.096;23.226;2023-02-21T08:40:32;98149.22;;;5.73;76.47
56241;BME280;42155;53.096;23.226;2023-02-21T08:42:33;98194.31;;;5.99;76.18
56241;BME280;42155;53.096;23.226;2023-02-21T08:44:33;98187.94;;;5.92;76.54
56241;BME280;42155;53.096;23.226;2023-02-21T08:46:34;98203.59;;;6.03;76.85
56241;BME280;42155;53.096;23.226;2023-02-21T08:48:34;98206.91;;;6.05;76.13
56241;BME280;42155;53.096;23.226;2023-02-21T08:50:35;98212.19;;;6.05;76.28
56241;BME280;42155;53.096;23.226;2023-02-21T08:52:35;98212.19;;;6.05;76.92
56241;BME280;42155;53.096;23.226;2023-02-21T08:54:35;98199.16;;;5.94;76.73
56241;BME280;42155;53.096;23.226;2023-02-21T08:56:36;98226.88;;;6.07;76.84
56241;BME280;42155;53.096;23.226;2023-02-21T08:58:36;98200.50;;;5.88;76.84
56241;BME280;42155;53.096;23.226;2023-02-21T09:00:37;98234.66;;;6.09;76.78
56241;BME280;42155;53.096;23.226;2023-02-21T09:02:37;98233.53;;;6.02;77.18
56241;BME280;42155;53.096;23.226;2023-02-21T09:04:38;98233.25;;;6.05;76.83
56241;BME280;42155;53.096;23.226;2023-02-21T09:06:38;98242.84;;;6.06;77.53
56241;BME280;42155;53.096;23.226;2023-02-21T09:08:38;98244.59;;;6.05;77.26
56241;BME280;42155;53.096;23.226;2023-02-21T09:10:39;98254.03;;;5.98;77.40
56241;BME280;42155;53.096;23.226;2023-02-21T09:12:39;98256.00;;;5.96;78.25
56241;BME280;42155;53.096;23.226;2023-02-21T09:14:41;98245.59;;;6.04;78.14
56241;BME280;42155;53.096;23.226;2023-02-21T09:16:41;98253.78;;;6.21;77.63
56241;BME280;42155;53.096;23.226;2023-02-21T09:18:42;98242.13;;;6.23;77.96
56241;BME280;42155;53.096;23.226;2023-02-21T09:20:42;98253.22;;;6.36;77.22
56241;BME280;42155;53.096;23.226;2023-02-21T09:22:43;98249.19;;;6.42;77.80
56241;BME280;42155;53.096;23.226;2023-02-21T09:24:43;98242.56;;;6.38;77.58
56241;BME280;42155;53.096;23.226;2023-02-21T09:26:44;98243.25;;;6.40;77.54
56241;BME280;42155;53.096;23.226;2023-02-21T09:28:44;98239.53;;;6.43;77.57
56241;BME280;42155;53.096;23.226;2023-02-21T09:30:45;98254.47;;;6.42;76.86
56241;BME280;42155;53.096;23.226;2023-02-21T09:32:46;98267.22;;;6.37;77.35
56241;BME280;42155;53.096;23.226;2023-02-21T09:34:47;98261.00;;;6.38;77.29
56241;BME280;42155;53.096;23.226;2023-02-21T09:36:48;98274.88;;;6.40;76.94
56241;BME280;42155;53.096;23.226;2023-02-21T09:38:52;98270.28;;;6.42;76.85
56241;BME280;42155;53.096;23.226;2023-02-21T09:41:00;98287.06;;;6.41;76.43
56241;BME280;42155;53.096;23.226;2023-02-21T09:43:04;98301.91;;;6.42;76.42
56241;BME280;42155;53.096;23.226;2023-02-21T09:45:05;98300.38;;;6.40;76.26
56241;BME280;42155;53.096;23.226;2023-02-21T09:47:06;98231.84;;;6.01;76.89
56241;BME280;42155;53.096;23.226;2023-02-21T09:49:12;98307.16;;;6.42;76.28
56241;BME280;42155;53.096;23.226;2023-02-21T09:51:16;98306.34;;;6.42;76.56
56241;BME280;42155;53.096;23.226;2023-02-21T09:53:41;98233.94;;;5.97;76.64
56241;BME280;42155;53.096;23.226;2023-02-21T09:55:42;98320.78;;;6.47;76.42
56241;BME280;42155;53.096;23.226;2023-02-21T09:57:42;98323.44;;;6.47;76.42
56241;BME280;42155;53.096;23.226;2023-02-21T09:59:42;98303.72;;;6.42;76.18
56241;BME280;42155;53.096;23.226;2023-02-21T10:08:52;98242.69;;;5.98;75.31
56241;BME280;42155;53.096;23.226;2023-02-21T10:10:57;98335.38;;;6.71;75.39
56241;BME280;42155;53.096;23.226;2023-02-21T10:13:14;98349.22;;;6.82;74.95
56241;BME280;42155;53.096;23.226;2023-02-21T10:17:44;98344.75;;;7.02;74.71
56241;BME280;42155;53.096;23.226;2023-02-21T10:19:49;98331.16;;;6.97;74.49
56241;BME280;42155;53.096;23.226;2023-02-21T10:21:53;98331.41;;;7.23;74.49
56241;BME280;42155;53.096;23.226;2023-02-21T10:23:56;98340.84;;;7.35;74.41
56241;BME280;42155;53.096;23.226;2023-02-21T10:26:02;98342.22;;;7.39;74.09
56241;BME280;42155;53.096;23.226;2023-02-21T10:28:04;98349.72;;;7.44;74.18
56241;BME280;42155;53.096;23.226;2023-02-21T10:30:06;98332.97;;;7.53;73.89
56241;BME280;42155;53.096;23.226;2023-02-21T10:32:07;98353.34;;;7.71;73.35
56241;BME280;42155;53.096;23.226;2023-02-21T10:34:19;98338.13;;;7.92;72.76
56241;BME280;42155;53.096;23.226;2023-02-21T10:36:22;98346.09;;;8.10;72.75
56241;BME280;42155;53.096;23.226;2023-02-21T10:38:25;98338.41;;;8.16;72.03
56241;BME280;42155;53.096;23.226;2023-02-21T10:40:38;98365.53;;;8.19;71.33
56241;BME280;42155;53.096;23.226;2023-02-21T10:42:42;98371.69;;;8.09;71.80
56241;BME280;42155;53.096;23.226;2023-02-21T10:44:44;98350.63;;;7.90;71.56
56241;BME280;42155;53.096;23.226;2023-02-21T10:47:25;98374.22;;;8.01;71.69
56241;BME280;42155;53.096;23.226;2023-02-21T10:49:24;98383.41;;;7.97;71.56
56241;BME280;42155;53.096;23.226;2023-02-21T10:53:36;98369.28;;;7.88;71.80
56241;BME280;42155;53.096;23.226;2023-02-21T10:55:37;98358.19;;;7.75;71.30
56241;BME280;42155;53.096;23.226;2023-02-21T10:57:42;98392.84;;;7.72;71.50
56241;BME280;42155;53.096;23.226;2023-02-21T10:59:46;98402.44;;;7.63;71.66
56241;BME280;42155;53.096;23.226;2023-02-21T11:01:47;98397.19;;;7.54;72.26
56241;BME280;42155;53.096;23.226;2023-02-21T11:03:50;98390.56;;;7.40;72.12
56241;BME280;42155;53.096;23.226;2023-02-21T11:05:54;98360.31;;;7.05;72.73
56241;BME280;42155;53.096;23.226;2023-02-21T11:08:02;98403.09;;;6.99;73.53
56241;BME280;42155;53.096;23.226;2023-02-21T11:10:34;98421.41;;;7.01;73.30
56241;BME280;42155;53.096;23.226;2023-02-21T11:12:36;98422.50;;;6.88;74.49
56241;BME280;42155;53.096;23.226;2023-02-21T11:14:36;98346.84;;;6.41;74.47
56241;BME280;42155;53.096;23.226;2023-02-21T11:16:37;98428.75;;;6.87;74.75
56241;BME280;42155;53.096;23.226;2023-02-21T11:18:37;98431.38;;;6.97;74.38
56241;BME280;42155;53.096;23.226;2023-02-21T11:20:38;98439.84;;;7.01;74.21
56241;BME280;42155;53.096;23.226;2023-02-21T11:22:41;98421.38;;;6.81;74.72
56241;BME280;42155;53.096;23.226;2023-02-21T11:26:59;98456.88;;;6.58;75.71
56241;BME280;42155;53.096;23.226;2023-02-21T11:29:12;98440.31;;;6.46;76.60
56241;BME280;42155;53.096;23.226;2023-02-21T11:31:32;98457.09;;;6.45;76.49